Rossville, Indiana
Current Conditions -  °F | °C
As of 11:15 AM on Wednesday 22 Oct 2014 (Local Time) from KFKR Reporting Station
Clear Clear  
Wind Chill: 46°   Ceiling: Unl
Heat Index: 48°   Visibility: 10mi
Dew Point: 40°   Wind: 5mph
Humidity: 73%   Direction: 10°N
Pressure: 30.36"   Gusts: NA
Location:  40.42°N, 86.59°W
Report Text: KFKR 221515Z AUTO 01004KT 10SM CLR 09/04 A3036 RMK AO2 T00900044
Loading
Personal Weather Stations






























Interactive Weather Map
Tropical Storm Tracking
New forecast layout! Learn more

10-Day Weather Forecast

Advertisements
Track Severe Weather on mobile